• Join FlightAware (Why Join?)
  • Login
  • US Flag 
11:12PM EDT


 

Airport Tracker/Info


-or-


 

Live Flight TrackerFlight Track Log ✈ N868DB ✈ 06-May-2014 ✈ KFTW - 3AU

Flight Track Log - Related Links

Times and Time Zones

All times are in EDT time to prevent confusion due to time zone crossing. See the N868DB flight status page for this flight to view local times or setup timezone preferences in your user account.

Time Position Orientation Groundspeed Altitude Reporting Facility
EDT Latitude Longitude Course Direction KTS MPH feet Rate Location/Type
08:38AM 32.7333 -97.3833 North 206 237 4,400  Level Dallas / Fort Worth TRACON
08:39AM 32.7333 -97.4603 270° West 253 291 6,900 2,820 Climbing Fort Worth Center
08:40AM 32.8147 -97.4556 North 289 333 10,500 2,700 Climbing Fort Worth Center
08:41AM 32.9058 -97.4214 17° North 352 405 12,400 2,340 Climbing Fort Worth Center
08:42AM 33.0083 -97.3625 26° Northeast 379 436 15,300 2,640 Climbing Fort Worth Center
08:43AM 33.3825 -97.1057 North  Level FlightAware Approximate
08:43AM 33.1081 -97.3061 25° Northeast 393 452 18,000  Level Fort Worth Center
08:44AM 33.2119 -97.2483 25° Northeast 409 471 20,300 2,100 Climbing Fort Worth Center
08:45AM 33.3206 -97.1856 26° Northeast 430 495 22,400 2,100 Climbing Fort Worth Center
08:46AM 33.4375 -97.1192 25° Northeast 445 512 24,600 2,100 Climbing Fort Worth Center
08:47AM 33.5589 -97.0947 10° North 450 518 26,700 1,860 Climbing Fort Worth Center
08:48AM 33.6814 -97.0781 North 444 511 28,500 1,680 Climbing Fort Worth Center
08:49AM 33.8097 -97.0628 North 459 528 30,300 1,620 Climbing Fort Worth Center
08:50AM 33.9386 -97.0486 North 462 532 31,800 780 Climbing Fort Worth Center
08:51AM 34.0975 -97.0289 North 476 548 32,000 60 Climbing Fort Worth Center
08:52AM 34.2131 -97.0108 North 476 548 32,000  Level Fort Worth Center
08:53AM 34.3433 -96.9928 North 475 547 32,000  Level Fort Worth Center
08:54AM 34.5011 -96.9903 North 472 543 32,000  Level Fort Worth Center
08:55AM 34.6331 -96.9944 359° North 472 543 32,000  Level Fort Worth Center
08:56AM 34.7639 -96.9983 359° North 474 545 32,000  Level Fort Worth Center
08:57AM 34.8947 -97.0031 358° North 474 545 32,000  Level Fort Worth Center
08:58AM 35.0242 -97.0058 359° North 472 543 32,000  Level Fort Worth Center
08:59AM 35.1531 -97.0097 359° North 469 540 32,000  Level Fort Worth Center
09:00AM 35.3078 -97.0144 359° North 468 539 32,000  Level Fort Worth Center
09:01AM 35.4369 -97.0169 359° North 468 539 32,000  Level Fort Worth Center
09:02AM 35.5667 -97.0208 359° North 469 540 32,000  Level Fort Worth Center
09:03AM 35.6969 -97.0247 359° North 470 541 32,000  Level Fort Worth Center
09:04AM 35.8272 -97.0283 359° North 470 541 32,000  Level Fort Worth Center
09:05AM 35.9322 -97.0319 358° North 471 542 32,000  Level Kansas City Center
09:06AM 36.0628 -97.0358 359° North 472 543 32,000  Level Kansas City Center
09:07AM 36.2200 -97.0389 359° North 472 543 32,000 -180 Level Kansas City Center
09:08AM 36.3503 -97.0436 358° North 472 543 31,700 -840 Descending Kansas City Center
09:09AM 36.4808 -97.0464 359° North 471 542 30,300 -1,680 Descending Kansas City Center
09:10AM 36.5992 -97.0497 359° North 469 540 28,400 -2,580 Descending Kansas City Center
09:11AM 36.7522 -97.0550 358° North 460 529 25,200 -2,880 Descending Kansas City Center
09:12AM 36.8658 -97.0581 359° North 448 516 22,500 -2,880 Descending Kansas City Center
09:13AM 36.9672 -97.0619 358° North 431 496 20,000 -2,880 Descending Kansas City Center
09:13AM 36.9872 -97.0597 North 444 511 19,600 -3,060 Descending Kansas City Center
09:14AM 37.0933 -97.0631 359° North 418 481 16,600 -3,180 Descending Kansas City Center
09:14AM 37.1025 -97.0619 North 425 489 16,300 -2,880 Descending Kansas City Center
09:15AM 37.2031 -97.0667 358° North 393 452 13,700 -3,060 Descending Kansas City Center
09:16AM 37.2231 -97.0650 North 405 466 13,200 -2,820 Descending Kansas City Center
09:16AM 37.3064 -97.0686 358° North 368 423 10,900 -2,940 Descending Kansas City Center
09:17AM 37.3353 -97.0667 North 381 438 10,300 -1,920 Descending Kansas City Center
09:17AM 37.4067 -97.0633 North 326 375 9,000 -1,500 Descending Kansas City Center
09:18AM 37.4242 -97.0619 North 329 379 8,700 -1,920 Descending Kansas City Center
09:18AM 37.4900 -97.0553 North 297 342 7,100 -2,100 Descending Kansas City Center
09:19AM 37.5075 -97.0517 North 305 351 6,600 -2,700 Descending Kansas City Center
09:19AM 37.5708 -97.0450 North 284 327 4,400 -2,640 Descending Kansas City Center
09:20AM 37.5864 -97.0414 10° North 293 337 4,000 -1,620 Descending Kansas City Center